Shinsei Maru — JI3623 — position and weather

sailwx.info

Track history (hours):
 
Tides and Currents Weather Stations Pressure Air Temp Water Temp Dewpoint Dewpoint Depression Visibility Wind Speed Wind Dir Waves Ship Positions

Shinsei Maru

Last reported at 2017-Dec-18 10:59 UTC. Time now 2017-Dec-18 11:05 UTC.
Position N 33°55' E 130°52'.

Length 86 m; draft 4.6 m.

Type: Tanker. MMSI: 431300454.

Date/timePositionNaut miles runAvg speedWind from/ knotsBaromVisibWave heightAir tempDewpointWater temp
2017-Dec-18 10:59N 33°55' E 130°52'0 0.0
2017-Dec-18 10:29N 33°55' E 130°52'0 0.0
2017-Dec-18 09:59N 33°55' E 130°52'0 0.0
2017-Dec-18 09:29N 33°55' E 130°52'0 0.0
2017-Dec-18 08:59N 33°55' E 130°52'0 0.0
2017-Dec-18 08:29N 33°55' E 130°52'0 0.0
2017-Dec-18 07:59N 33°55' E 130°52'0 0.0
2017-Dec-18 07:29N 33°55' E 130°52'0 0.0
2017-Dec-18 06:59N 33°55' E 130°52'0 0.0
2017-Dec-18 06:29N 33°55' E 130°52'0 0.0
2017-Dec-18 05:59N 33°55' E 130°52'0 0.0
2017-Dec-18 05:29N 33°55' E 130°52'0 0.0
2017-Dec-18 04:59N 33°55' E 130°52'0 0.0
2017-Dec-18 04:30N 33°55' E 130°52'0 0.0
2017-Dec-18 04:00N 33°55' E 130°52'0 0.0
2017-Dec-18 03:30N 33°55' E 130°52'1 2.8
2017-Dec-18 03:00N 33°55' E 130°54'4 7.0
2017-Dec-18 02:30N 33°57' E 130°57'5 9.7
2017-Dec-18 02:00N 33°57' E 131°03'2 3.4
2017-Dec-18 01:30N 33°56' E 131°03'0 0.0
2017-Dec-18 01:00N 33°56' E 131°03'0 0.0
2017-Dec-18 00:30N 33°56' E 131°03'0 0.0
2017-Dec-18 00:00N 33°56' E 131°03'0 0.0
2017-Dec-17 23:30N 33°56' E 131°03'0 0.0
2017-Dec-17 23:00N 33°56' E 131°03'0 0.0
2017-Dec-17 22:30N 33°56' E 131°03'0 0.0
2017-Dec-17 22:00N 33°56' E 131°03'0 0.0
2017-Dec-17 21:30N 33°56' E 131°03'4 8.3
2017-Dec-17 21:00N 33°54' E 131°08'611.3
2017-Dec-17 20:30N 33°51' E 131°14'611.8
2017-Dec-17 20:00N 33°50' E 131°21'611.7
2017-Dec-17 19:30N 33°49' E 131°28'611.7
2017-Dec-17 19:00N 33°48' E 131°35'611.4
2017-Dec-17 18:30N 33°48' E 131°42'510.9
2017-Dec-17 18:00N 33°47' E 131°48'711.0
2017-Dec-17 17:22N 33°45' E 131°57'411.2
2017-Dec-17 17:00N 33°46' E 132°02'711.9
2017-Dec-17 16:23N 33°49' E 132°09'411.7
2017-Dec-17 16:00N 33°50' E 132°15'712.0
2017-Dec-17 15:27N 33°50' E 132°23'512.0
2017-Dec-17 15:00N 33°52' E 132°29'611.7
2017-Dec-17 14:28N 33°54' E 132°36'511.5
2017-Dec-17 14:00N 33°57' E 132°41'510.9
2017-Dec-17 13:30N 34°01' E 132°45'4 0.2
2017-Dec-16 16:33N 34°04' E 132°49'310.8
2017-Dec-16 16:19N 34°02' E 132°47'310.2
2017-Dec-16 16:00N 33°59' E 132°45'5 9.7
2017-Dec-16 15:30N 33°56' E 132°41'510.2
2017-Dec-16 15:00N 33°52' E 132°36'610.9
2017-Dec-16 14:29N 33°49' E 132°31'511.2
2017-Dec-16 14:00N 33°46' E 132°25'611.4
2017-Dec-16 13:27N 33°44' E 132°18'511.6
2017-Dec-16 13:00N 33°42' E 132°12'1111.8
2017-Dec-16 12:02N 33°43' E 131°59'111.9
2017-Dec-16 11:59N 33°43' E 131°58'612.4
2017-Dec-16 11:29N 33°44' E 131°51'612.3
2017-Dec-16 11:00N 33°45' E 131°44'612.1
2017-Dec-16 10:30N 33°46' E 131°37'612.0
2017-Dec-16 10:00N 33°48' E 131°30'611.8
2017-Dec-16 09:30N 33°49' E 131°23'611.5
2017-Dec-16 09:00N 33°51' E 131°16'611.3
2017-Dec-16 08:30N 33°53' E 131°10'611.8
2017-Dec-16 08:00N 33°56' E 131°04'510.2
2017-Dec-16 07:30N 33°58' E 130°58'510.4
2017-Dec-16 07:00N 33°55' E 130°53'1 1.9
2017-Dec-16 06:30N 33°55' E 130°52'0 0.0
2017-Dec-16 06:00N 33°55' E 130°52'0 0.0
2017-Dec-16 05:30N 33°55' E 130°52'0 0.0
2017-Dec-16 05:00N 33°55' E 130°52'0 0.0
2017-Dec-16 04:30N 33°55' E 130°52'0 0.0
2017-Dec-16 04:00N 33°55' E 130°52'0 0.0
2017-Dec-16 03:30N 33°55' E 130°52'0 0.0
2017-Dec-16 03:00N 33°55' E 130°52'1 2.7
2017-Dec-16 02:30N 33°55' E 130°54'4 8.5
2017-Dec-16 02:00N 33°58' E 130°58'4 8.8
2017-Dec-16 01:30N 33°58' E 131°03'2 4.0
2017-Dec-16 01:00N 33°56' E 131°03'0 0.3
2017-Dec-16 00:30N 33°56' E 131°03'0 0.0
2017-Dec-16 00:00N 33°56' E 131°03'0 0.0
2017-Dec-15 23:30N 33°56' E 131°03'0 0.0
2017-Dec-15 23:00N 33°56' E 131°03'0 0.0
2017-Dec-15 22:30N 33°56' E 131°03'0 0.0
2017-Dec-15 22:00N 33°56' E 131°03'0 0.1
2017-Dec-15 21:30N 33°56' E 131°03'0 1.0
2017-Dec-15 21:00N 33°55' E 131°04'611.0
2017-Dec-15 20:30N 33°52' E 131°09'611.3
2017-Dec-15 20:00N 33°51' E 131°16'611.9
2017-Dec-15 19:30N 33°50' E 131°23'611.6
2017-Dec-15 19:00N 33°49' E 131°30'611.6
2017-Dec-15 18:30N 33°48' E 131°37'611.2
2017-Dec-15 18:00N 33°48' E 131°43'611.1
2017-Dec-15 17:29N 33°46' E 131°50'511.0
2017-Dec-15 17:00N 33°46' E 131°57'611.0
2017-Dec-15 16:29N 33°46' E 132°03'712.0
2017-Dec-15 15:52N 33°49' E 132°11'511.9
2017-Dec-15 15:27N 33°50' E 132°17'1212.0
2017-Dec-15 14:28N 33°52' E 132°31'612.0
2017-Dec-15 14:00N 33°55' E 132°37'612.1
2017-Dec-15 13:30N 33°59' E 132°43'7 0.2
2017-Dec-14 01:54N 34°04' E 132°49'410.2
2017-Dec-14 01:30N 34°01' E 132°46'510.5
2017-Dec-14 01:00N 33°57' E 132°42'510.6
2017-Dec-14 00:30N 33°54' E 132°37'610.7
2017-Dec-13 23:56N 33°52' E 132°30'510.7
2017-Dec-13 23:27N 33°50' E 132°24'511.1
2017-Dec-13 22:59N 33°50' E 132°18'511.4
2017-Dec-13 22:30N 33°49' E 132°11'611.4
2017-Dec-13 22:00N 33°46' E 132°06'710.8
2017-Dec-13 21:19N 33°45' E 131°57'310.9
2017-Dec-13 21:00N 33°46' E 131°53'510.7
2017-Dec-13 20:30N 33°47' E 131°46'510.2
2017-Dec-13 20:00N 33°47' E 131°40'510.1
2017-Dec-13 19:30N 33°47' E 131°34'510.4
2017-Dec-13 19:00N 33°48' E 131°28'510.3
2017-Dec-13 18:30N 33°49' E 131°22'510.3
2017-Dec-13 18:00N 33°50' E 131°16'510.2
2017-Dec-13 17:30N 33°52' E 131°10'510.8
2017-Dec-13 17:00N 33°55' E 131°05'510.8
2017-Dec-13 16:30N 33°58' E 130°60'612.5
2017-Dec-13 16:00N 33°54' E 130°54'611.4
2017-Dec-13 15:30N 33°60' E 130°52'611.3
2017-Dec-13 15:00N 34°03' E 130°46'611.2
2017-Dec-13 14:30N 34°03' E 130°39'510.5
2017-Dec-13 14:00N 34°01' E 130°34'510.4
2017-Dec-13 13:30N 33°58' E 130°28'510.5
2017-Dec-13 13:00N 33°56' E 130°23'510.8
2017-Dec-13 12:30N 33°53' E 130°17'510.8
2017-Dec-13 12:00N 33°50' E 130°12'510.6
2017-Dec-13 11:30N 33°47' E 130°06'610.9
2017-Dec-13 10:58N 33°44' E 130°00'510.8
2017-Dec-13 10:29N 33°41' E 129°55'7 0.2
2017-Dec-12 01:32N 33°34' E 129°55'111.0
2017-Dec-12 01:25N 33°35' E 129°57'510.6
2017-Dec-12 00:56N 33°37' E 130°02'410.5
2017-Dec-12 00:31N 33°38' E 130°07'5 9.7
2017-Dec-12 00:01N 33°40' E 130°13'5 9.8
2017-Dec-11 23:30N 33°39' E 130°18'2 4.7
2017-Dec-11 23:01N 33°37' E 130°20'0 0.1
2017-Dec-11 22:31N 33°37' E 130°21'0 0.0
2017-Dec-11 22:01N 33°37' E 130°21'0 0.0
2017-Dec-11 21:30N 33°37' E 130°21'0 0.0
2017-Dec-11 21:00N 33°37' E 130°21'0 0.0
2017-Dec-11 20:30N 33°37' E 130°21'0 0.0
2017-Dec-11 20:00N 33°37' E 130°21'0 0.0
2017-Dec-11 19:30N 33°37' E 130°21'0 0.0
2017-Dec-11 19:00N 33°37' E 130°21'0 0.0
2017-Dec-11 18:30N 33°37' E 130°21'0 0.0
2017-Dec-11 18:00N 33°37' E 130°21'0 0.0
2017-Dec-11 17:30N 33°37' E 130°21'0 0.0
2017-Dec-11 17:00N 33°37' E 130°21'0 0.0
2017-Dec-11 16:30N 33°37' E 130°21'0 0.0
2017-Dec-11 16:00N 33°37' E 130°21'0 0.0
2017-Dec-11 15:30N 33°37' E 130°21'0 0.0
2017-Dec-11 15:00N 33°37' E 130°21'0 0.0
2017-Dec-11 14:30N 33°37' E 130°21'0 0.0
2017-Dec-11 14:00N 33°37' E 130°21'0 0.0
2017-Dec-11 13:30N 33°37' E 130°21'0 0.0
2017-Dec-11 13:00N 33°37' E 130°21'0 0.0
2017-Dec-11 12:30N 33°37' E 130°21'0 0.0
2017-Dec-11 12:00N 33°37' E 130°21'0 0.0
2017-Dec-11 11:30N 33°37' E 130°21'0 0.0
2017-Dec-11 11:00N 33°37' E 130°21'0 0.0
2017-Dec-11 10:30N 33°37' E 130°21'0 0.5
2017-Dec-11 10:00N 33°38' E 130°20'4 8.3
2017-Dec-11 09:30N 33°40' E 130°16'4 8.4
2017-Dec-11 09:00N 33°44' E 130°16'4 7.6
2017-Dec-11 08:30N 33°47' E 130°19'4 8.2
2017-Dec-11 08:00N 33°51' E 130°21'4 8.1
2017-Dec-11 07:30N 33°55' E 130°22'3 6.7
2017-Dec-11 07:00N 33°57' E 130°26'3 6.8
2017-Dec-11 06:30N 33°58' E 130°30'4 7.2
2017-Dec-11 06:00N 33°60' E 130°33'4 7.4
2017-Dec-11 05:30N 34°01' E 130°38'4 7.6
2017-Dec-11 05:00N 34°02' E 130°42'4 7.5
2017-Dec-11 04:30N 34°02' E 130°46'4 8.1
2017-Dec-11 04:00N 34°01' E 130°51'4 7.7
2017-Dec-11 03:30N 33°57' E 130°52'4 7.0
2017-Dec-11 03:00N 33°55' E 130°56'4 8.6
2017-Dec-11 02:30N 33°59' E 130°59'5 9.6
2017-Dec-11 02:00N 33°57' E 131°04'510.0
2017-Dec-11 01:30N 33°54' E 131°09'5 9.8
2017-Dec-11 01:00N 33°52' E 131°15'510.0
2017-Dec-11 00:30N 33°51' E 131°20'510.1
2017-Dec-11 00:00N 33°50' E 131°26'5 9.9
2017-Dec-10 23:30N 33°49' E 131°32'5 9.5
2017-Dec-10 23:00N 33°48' E 131°38'5 9.5
2017-Dec-10 22:30N 33°47' E 131°43'5 9.5
2017-Dec-10 21:57N 33°46' E 131°50'10 9.3
2017-Dec-10 20:54N 33°45' E 132°02'410.1
2017-Dec-10 20:30N 33°47' E 132°06'710.8
2017-Dec-10 19:52N 33°50' E 132°13'510.9
2017-Dec-10 19:26N 33°50' E 132°19'610.9
2017-Dec-10 18:55N 33°51' E 132°26'510.7
2017-Dec-10 18:26N 33°53' E 132°32'510.4
2017-Dec-10 18:00N 33°55' E 132°37'510.0
2017-Dec-10 17:30N 33°57' E 132°42'510.2
2017-Dec-10 17:00N 34°01' E 132°46'3 0.1
2017-Dec-09 18:19N 34°03' E 132°48'412.5
2017-Dec-09 18:00N 33°60' E 132°45'612.4
2017-Dec-09 17:30N 33°55' E 132°40'612.4
2017-Dec-09 17:00N 33°53' E 132°33'712.5
2017-Dec-09 16:25N 33°51' E 132°25'612.5
2017-Dec-09 15:56N 33°50' E 132°17'512.4
2017-Dec-09 15:30N 33°49' E 132°11'712.7
2017-Dec-09 14:58N 33°45' E 132°04'712.0
2017-Dec-09 14:22N 33°45' E 131°56'411.8
2017-Dec-09 14:00N 33°46' E 131°51'611.9
2017-Dec-09 13:30N 33°47' E 131°44'611.8
2017-Dec-09 13:00N 33°47' E 131°37'611.4
2017-Dec-09 12:30N 33°48' E 131°30'611.7
2017-Dec-09 12:00N 33°49' E 131°23'611.9
2017-Dec-09 11:30N 33°51' E 131°16'611.8
2017-Dec-09 11:00N 33°53' E 131°09'612.3
2017-Dec-09 10:30N 33°56' E 131°03'510.4
2017-Dec-09 10:00N 33°57' E 130°57'4 8.1
2017-Dec-09 09:30N 33°56' E 130°52'611.1
2017-Dec-09 09:01N 33°58' E 130°46'611.9
2017-Dec-09 08:31N 33°58' E 130°39'612.1
2017-Dec-09 08:00N 33°57' E 130°32'2110.5
2017-Dec-09 06:00N 33°39' E 130°18'510.4
2017-Dec-09 05:30N 33°36' E 130°23'0 0.8
2017-Dec-09 05:00N 33°36' E 130°23'0 0.0
2017-Dec-09 04:30N 33°36' E 130°23'0 0.0
2017-Dec-09 04:00N 33°36' E 130°23'0 0.0
2017-Dec-09 03:30N 33°36' E 130°23'0 0.0
2017-Dec-09 03:00N 33°36' E 130°23'0 0.0
2017-Dec-09 02:31N 33°36' E 130°23'0 0.0
2017-Dec-09 02:00N 33°36' E 130°23'0 0.5
2017-Dec-09 01:30N 33°36' E 130°23'2 4.9
2017-Dec-09 01:00N 33°38' E 130°21'510.6
2017-Dec-09 00:30N 33°41' E 130°16'511.0
2017-Dec-09 00:01N 33°46' E 130°18'611.2
2017-Dec-08 23:31N 33°51' E 130°22'611.0
2017-Dec-08 23:00N 33°56' E 130°24'510.6
2017-Dec-08 22:30N 33°58' E 130°30'510.3
2017-Dec-08 22:01N 33°60' E 130°36'5 9.9
2017-Dec-08 21:30N 34°02' E 130°41'5 9.1
2017-Dec-08 21:01N 34°02' E 130°47'4 8.9
2017-Dec-08 20:31N 33°59' E 130°51'4 8.8
2017-Dec-08 20:01N 33°55' E 130°53'3 5.1
2017-Dec-08 19:30N 33°56' E 130°56'4 7.8
2017-Dec-08 19:01N 33°59' E 130°60'5 9.6
2017-Dec-08 18:31N 33°56' E 131°04'510.2
2017-Dec-08 18:00N 33°53' E 131°09'510.3
2017-Dec-08 17:30N 33°51' E 131°15'510.5
2017-Dec-08 17:00N 33°50' E 131°21'510.5
2017-Dec-08 16:30N 33°49' E 131°28'510.5
2017-Dec-08 16:00N 33°49' E 131°34'510.3
2017-Dec-08 15:30N 33°48' E 131°40'510.2
2017-Dec-08 15:00N 33°47' E 131°46'510.2
2017-Dec-08 14:29N 33°46' E 131°52'710.0
2017-Dec-08 13:45N 33°46' E 132°01'310.3
2017-Dec-08 13:30N 33°46' E 132°04'510.9
2017-Dec-08 12:59N 33°49' E 132°10'610.5
2017-Dec-08 12:26N 33°50' E 132°17'510.6
2017-Dec-08 11:58N 33°50' E 132°22'811.0
2017-Dec-08 11:14N 33°53' E 132°32'311.2
2017-Dec-08 10:59N 33°54' E 132°35'  
Track history (hours):
 
Tides and Currents Weather Stations Pressure Air Temp Water Temp Dewpoint Dewpoint Depression Visibility Wind Speed Wind Dir Waves Ship Positions

Shinsei Maru

Last reported at 2017-Dec-18 10:59 UTC. Time now 2017-Dec-18 11:05 UTC.
Position N 33°55' E 130°52'.

Length 86 m; draft 4.6 m.

Type: Tanker. MMSI: 431300454.

Date/timePositionNaut miles runAvg speedWind from/ knotsBaromVisibWave heightAir tempDewpointWater temp
2017-Dec-18 10:59N 33°55' E 130°52'0 0.0
2017-Dec-18 10:29N 33°55' E 130°52'0 0.0
2017-Dec-18 09:59N 33°55' E 130°52'0 0.0
2017-Dec-18 09:29N 33°55' E 130°52'0 0.0
2017-Dec-18 08:59N 33°55' E 130°52'0 0.0
2017-Dec-18 08:29N 33°55' E 130°52'0 0.0
2017-Dec-18 07:59N 33°55' E 130°52'0 0.0
2017-Dec-18 07:29N 33°55' E 130°52'0 0.0
2017-Dec-18 06:59N 33°55' E 130°52'0 0.0
2017-Dec-18 06:29N 33°55' E 130°52'0 0.0
2017-Dec-18 05:59N 33°55' E 130°52'0 0.0
2017-Dec-18 05:29N 33°55' E 130°52'0 0.0
2017-Dec-18 04:59N 33°55' E 130°52'0 0.0
2017-Dec-18 04:30N 33°55' E 130°52'0 0.0
2017-Dec-18 04:00N 33°55' E 130°52'0 0.0
2017-Dec-18 03:30N 33°55' E 130°52'1 2.8
2017-Dec-18 03:00N 33°55' E 130°54'4 7.0
2017-Dec-18 02:30N 33°57' E 130°57'5 9.7
2017-Dec-18 02:00N 33°57' E 131°03'2 3.4
2017-Dec-18 01:30N 33°56' E 131°03'0 0.0
2017-Dec-18 01:00N 33°56' E 131°03'0 0.0
2017-Dec-18 00:30N 33°56' E 131°03'0 0.0
2017-Dec-18 00:00N 33°56' E 131°03'0 0.0
2017-Dec-17 23:30N 33°56' E 131°03'0 0.0
2017-Dec-17 23:00N 33°56' E 131°03'0 0.0
2017-Dec-17 22:30N 33°56' E 131°03'0 0.0
2017-Dec-17 22:00N 33°56' E 131°03'0 0.0
2017-Dec-17 21:30N 33°56' E 131°03'4 8.3
2017-Dec-17 21:00N 33°54' E 131°08'611.3
2017-Dec-17 20:30N 33°51' E 131°14'611.8
2017-Dec-17 20:00N 33°50' E 131°21'611.7
2017-Dec-17 19:30N 33°49' E 131°28'611.7
2017-Dec-17 19:00N 33°48' E 131°35'611.4
2017-Dec-17 18:30N 33°48' E 131°42'510.9
2017-Dec-17 18:00N 33°47' E 131°48'711.0
2017-Dec-17 17:22N 33°45' E 131°57'411.2
2017-Dec-17 17:00N 33°46' E 132°02'711.9
2017-Dec-17 16:23N 33°49' E 132°09'411.7
2017-Dec-17 16:00N 33°50' E 132°15'712.0
2017-Dec-17 15:27N 33°50' E 132°23'512.0
2017-Dec-17 15:00N 33°52' E 132°29'611.7
2017-Dec-17 14:28N 33°54' E 132°36'511.5
2017-Dec-17 14:00N 33°57' E 132°41'510.9
2017-Dec-17 13:30N 34°01' E 132°45'4 0.2
2017-Dec-16 16:33N 34°04' E 132°49'310.8
2017-Dec-16 16:19N 34°02' E 132°47'310.2
2017-Dec-16 16:00N 33°59' E 132°45'5 9.7
2017-Dec-16 15:30N 33°56' E 132°41'510.2
2017-Dec-16 15:00N 33°52' E 132°36'610.9
2017-Dec-16 14:29N 33°49' E 132°31'511.2
2017-Dec-16 14:00N 33°46' E 132°25'611.4
2017-Dec-16 13:27N 33°44' E 132°18'511.6
2017-Dec-16 13:00N 33°42' E 132°12'1111.8
2017-Dec-16 12:02N 33°43' E 131°59'111.9
2017-Dec-16 11:59N 33°43' E 131°58'612.4
2017-Dec-16 11:29N 33°44' E 131°51'612.3
2017-Dec-16 11:00N 33°45' E 131°44'612.1
2017-Dec-16 10:30N 33°46' E 131°37'612.0
2017-Dec-16 10:00N 33°48' E 131°30'611.8
2017-Dec-16 09:30N 33°49' E 131°23'611.5
2017-Dec-16 09:00N 33°51' E 131°16'611.3
2017-Dec-16 08:30N 33°53' E 131°10'611.8
2017-Dec-16 08:00N 33°56' E 131°04'510.2
2017-Dec-16 07:30N 33°58' E 130°58'510.4
2017-Dec-16 07:00N 33°55' E 130°53'1 1.9
2017-Dec-16 06:30N 33°55' E 130°52'0 0.0
2017-Dec-16 06:00N 33°55' E 130°52'0 0.0
2017-Dec-16 05:30N 33°55' E 130°52'0 0.0
2017-Dec-16 05:00N 33°55' E 130°52'0 0.0
2017-Dec-16 04:30N 33°55' E 130°52'0 0.0
2017-Dec-16 04:00N 33°55' E 130°52'0 0.0
2017-Dec-16 03:30N 33°55' E 130°52'0 0.0
2017-Dec-16 03:00N 33°55' E 130°52'1 2.7
2017-Dec-16 02:30N 33°55' E 130°54'4 8.5
2017-Dec-16 02:00N 33°58' E 130°58'4 8.8
2017-Dec-16 01:30N 33°58' E 131°03'2 4.0
2017-Dec-16 01:00N 33°56' E 131°03'0 0.3
2017-Dec-16 00:30N 33°56' E 131°03'0 0.0
2017-Dec-16 00:00N 33°56' E 131°03'0 0.0
2017-Dec-15 23:30N 33°56' E 131°03'0 0.0
2017-Dec-15 23:00N 33°56' E 131°03'0 0.0
2017-Dec-15 22:30N 33°56' E 131°03'0 0.0
2017-Dec-15 22:00N 33°56' E 131°03'0 0.1
2017-Dec-15 21:30N 33°56' E 131°03'0 1.0
2017-Dec-15 21:00N 33°55' E 131°04'611.0
2017-Dec-15 20:30N 33°52' E 131°09'611.3
2017-Dec-15 20:00N 33°51' E 131°16'611.9
2017-Dec-15 19:30N 33°50' E 131°23'611.6
2017-Dec-15 19:00N 33°49' E 131°30'611.6
2017-Dec-15 18:30N 33°48' E 131°37'611.2
2017-Dec-15 18:00N 33°48' E 131°43'611.1
2017-Dec-15 17:29N 33°46' E 131°50'511.0
2017-Dec-15 17:00N 33°46' E 131°57'611.0
2017-Dec-15 16:29N 33°46' E 132°03'712.0
2017-Dec-15 15:52N 33°49' E 132°11'511.9
2017-Dec-15 15:27N 33°50' E 132°17'1212.0
2017-Dec-15 14:28N 33°52' E 132°31'612.0
2017-Dec-15 14:00N 33°55' E 132°37'612.1
2017-Dec-15 13:30N 33°59' E 132°43'7 0.2
2017-Dec-14 01:54N 34°04' E 132°49'410.2
2017-Dec-14 01:30N 34°01' E 132°46'510.5
2017-Dec-14 01:00N 33°57' E 132°42'510.6
2017-Dec-14 00:30N 33°54' E 132°37'610.7
2017-Dec-13 23:56N 33°52' E 132°30'510.7
2017-Dec-13 23:27N 33°50' E 132°24'511.1
2017-Dec-13 22:59N 33°50' E 132°18'511.4
2017-Dec-13 22:30N 33°49' E 132°11'611.4
2017-Dec-13 22:00N 33°46' E 132°06'710.8
2017-Dec-13 21:19N 33°45' E 131°57'310.9
2017-Dec-13 21:00N 33°46' E 131°53'510.7
2017-Dec-13 20:30N 33°47' E 131°46'510.2
2017-Dec-13 20:00N 33°47' E 131°40'510.1
2017-Dec-13 19:30N 33°47' E 131°34'510.4
2017-Dec-13 19:00N 33°48' E 131°28'510.3
2017-Dec-13 18:30N 33°49' E 131°22'510.3
2017-Dec-13 18:00N 33°50' E 131°16'510.2
2017-Dec-13 17:30N 33°52' E 131°10'510.8
2017-Dec-13 17:00N 33°55' E 131°05'510.8
2017-Dec-13 16:30N 33°58' E 130°60'612.5
2017-Dec-13 16:00N 33°54' E 130°54'611.4
2017-Dec-13 15:30N 33°60' E 130°52'611.3
2017-Dec-13 15:00N 34°03' E 130°46'611.2
2017-Dec-13 14:30N 34°03' E 130°39'510.5
2017-Dec-13 14:00N 34°01' E 130°34'510.4
2017-Dec-13 13:30N 33°58' E 130°28'510.5
2017-Dec-13 13:00N 33°56' E 130°23'510.8
2017-Dec-13 12:30N 33°53' E 130°17'510.8
2017-Dec-13 12:00N 33°50' E 130°12'510.6
2017-Dec-13 11:30N 33°47' E 130°06'610.9
2017-Dec-13 10:58N 33°44' E 130°00'510.8
2017-Dec-13 10:29N 33°41' E 129°55'7 0.2
2017-Dec-12 01:32N 33°34' E 129°55'111.0
2017-Dec-12 01:25N 33°35' E 129°57'510.6
2017-Dec-12 00:56N 33°37' E 130°02'410.5
2017-Dec-12 00:31N 33°38' E 130°07'5 9.7
2017-Dec-12 00:01N 33°40' E 130°13'5 9.8
2017-Dec-11 23:30N 33°39' E 130°18'2 4.7
2017-Dec-11 23:01N 33°37' E 130°20'0 0.1
2017-Dec-11 22:31N 33°37' E 130°21'0 0.0
2017-Dec-11 22:01N 33°37' E 130°21'0 0.0
2017-Dec-11 21:30N 33°37' E 130°21'0 0.0
2017-Dec-11 21:00N 33°37' E 130°21'0 0.0
2017-Dec-11 20:30N 33°37' E 130°21'0 0.0
2017-Dec-11 20:00N 33°37' E 130°21'0 0.0
2017-Dec-11 19:30N 33°37' E 130°21'0 0.0
2017-Dec-11 19:00N 33°37' E 130°21'0 0.0
2017-Dec-11 18:30N 33°37' E 130°21'0 0.0
2017-Dec-11 18:00N 33°37' E 130°21'0 0.0
2017-Dec-11 17:30N 33°37' E 130°21'0 0.0
2017-Dec-11 17:00N 33°37' E 130°21'0 0.0
2017-Dec-11 16:30N 33°37' E 130°21'0 0.0
2017-Dec-11 16:00N 33°37' E 130°21'0 0.0
2017-Dec-11 15:30N 33°37' E 130°21'0 0.0
2017-Dec-11 15:00N 33°37' E 130°21'0 0.0
2017-Dec-11 14:30N 33°37' E 130°21'0 0.0
2017-Dec-11 14:00N 33°37' E 130°21'0 0.0
2017-Dec-11 13:30N 33°37' E 130°21'0 0.0
2017-Dec-11 13:00N 33°37' E 130°21'0 0.0
2017-Dec-11 12:30N 33°37' E 130°21'0 0.0
2017-Dec-11 12:00N 33°37' E 130°21'0 0.0
2017-Dec-11 11:30N 33°37' E 130°21'0 0.0
2017-Dec-11 11:00N 33°37' E 130°21'0 0.0
2017-Dec-11 10:30N 33°37' E 130°21'0 0.5
2017-Dec-11 10:00N 33°38' E 130°20'4 8.3
2017-Dec-11 09:30N 33°40' E 130°16'4 8.4
2017-Dec-11 09:00N 33°44' E 130°16'4 7.6
2017-Dec-11 08:30N 33°47' E 130°19'4 8.2
2017-Dec-11 08:00N 33°51' E 130°21'4 8.1
2017-Dec-11 07:30N 33°55' E 130°22'3 6.7
2017-Dec-11 07:00N 33°57' E 130°26'3 6.8
2017-Dec-11 06:30N 33°58' E 130°30'4 7.2
2017-Dec-11 06:00N 33°60' E 130°33'4 7.4
2017-Dec-11 05:30N 34°01' E 130°38'4 7.6
2017-Dec-11 05:00N 34°02' E 130°42'4 7.5
2017-Dec-11 04:30N 34°02' E 130°46'4 8.1
2017-Dec-11 04:00N 34°01' E 130°51'4 7.7
2017-Dec-11 03:30N 33°57' E 130°52'4 7.0
2017-Dec-11 03:00N 33°55' E 130°56'4 8.6
2017-Dec-11 02:30N 33°59' E 130°59'5 9.6
2017-Dec-11 02:00N 33°57' E 131°04'510.0
2017-Dec-11 01:30N 33°54' E 131°09'5 9.8
2017-Dec-11 01:00N 33°52' E 131°15'510.0
2017-Dec-11 00:30N 33°51' E 131°20'510.1
2017-Dec-11 00:00N 33°50' E 131°26'5 9.9
2017-Dec-10 23:30N 33°49' E 131°32'5 9.5
2017-Dec-10 23:00N 33°48' E 131°38'5 9.5
2017-Dec-10 22:30N 33°47' E 131°43'5 9.5
2017-Dec-10 21:57N 33°46' E 131°50'10 9.3
2017-Dec-10 20:54N 33°45' E 132°02'410.1
2017-Dec-10 20:30N 33°47' E 132°06'710.8
2017-Dec-10 19:52N 33°50' E 132°13'510.9
2017-Dec-10 19:26N 33°50' E 132°19'610.9
2017-Dec-10 18:55N 33°51' E 132°26'510.7
2017-Dec-10 18:26N 33°53' E 132°32'510.4
2017-Dec-10 18:00N 33°55' E 132°37'510.0
2017-Dec-10 17:30N 33°57' E 132°42'510.2
2017-Dec-10 17:00N 34°01' E 132°46'3 0.1
2017-Dec-09 18:19N 34°03' E 132°48'412.5
2017-Dec-09 18:00N 33°60' E 132°45'612.4
2017-Dec-09 17:30N 33°55' E 132°40'612.4
2017-Dec-09 17:00N 33°53' E 132°33'712.5
2017-Dec-09 16:25N 33°51' E 132°25'612.5
2017-Dec-09 15:56N 33°50' E 132°17'512.4
2017-Dec-09 15:30N 33°49' E 132°11'712.7
2017-Dec-09 14:58N 33°45' E 132°04'712.0
2017-Dec-09 14:22N 33°45' E 131°56'411.8
2017-Dec-09 14:00N 33°46' E 131°51'611.9
2017-Dec-09 13:30N 33°47' E 131°44'611.8
2017-Dec-09 13:00N 33°47' E 131°37'611.4
2017-Dec-09 12:30N 33°48' E 131°30'611.7
2017-Dec-09 12:00N 33°49' E 131°23'611.9
2017-Dec-09 11:30N 33°51' E 131°16'611.8
2017-Dec-09 11:00N 33°53' E 131°09'612.3
2017-Dec-09 10:30N 33°56' E 131°03'510.4
2017-Dec-09 10:00N 33°57' E 130°57'4 8.1
2017-Dec-09 09:30N 33°56' E 130°52'611.1
2017-Dec-09 09:01N 33°58' E 130°46'611.9
2017-Dec-09 08:31N 33°58' E 130°39'612.1
2017-Dec-09 08:00N 33°57' E 130°32'2110.5
2017-Dec-09 06:00N 33°39' E 130°18'510.4
2017-Dec-09 05:30N 33°36' E 130°23'0 0.8
2017-Dec-09 05:00N 33°36' E 130°23'0 0.0
2017-Dec-09 04:30N 33°36' E 130°23'0 0.0
2017-Dec-09 04:00N 33°36' E 130°23'0 0.0
2017-Dec-09 03:30N 33°36' E 130°23'0 0.0
2017-Dec-09 03:00N 33°36' E 130°23'0 0.0
2017-Dec-09 02:31N 33°36' E 130°23'0 0.0
2017-Dec-09 02:00N 33°36' E 130°23'0 0.5
2017-Dec-09 01:30N 33°36' E 130°23'2 4.9
2017-Dec-09 01:00N 33°38' E 130°21'510.6
2017-Dec-09 00:30N 33°41' E 130°16'511.0
2017-Dec-09 00:01N 33°46' E 130°18'611.2
2017-Dec-08 23:31N 33°51' E 130°22'611.0
2017-Dec-08 23:00N 33°56' E 130°24'510.6
2017-Dec-08 22:30N 33°58' E 130°30'510.3
2017-Dec-08 22:01N 33°60' E 130°36'5 9.9
2017-Dec-08 21:30N 34°02' E 130°41'5 9.1
2017-Dec-08 21:01N 34°02' E 130°47'4 8.9
2017-Dec-08 20:31N 33°59' E 130°51'4 8.8
2017-Dec-08 20:01N 33°55' E 130°53'3 5.1
2017-Dec-08 19:30N 33°56' E 130°56'4 7.8
2017-Dec-08 19:01N 33°59' E 130°60'5 9.6
2017-Dec-08 18:31N 33°56' E 131°04'510.2
2017-Dec-08 18:00N 33°53' E 131°09'510.3
2017-Dec-08 17:30N 33°51' E 131°15'510.5
2017-Dec-08 17:00N 33°50' E 131°21'510.5
2017-Dec-08 16:30N 33°49' E 131°28'510.5
2017-Dec-08 16:00N 33°49' E 131°34'510.3
2017-Dec-08 15:30N 33°48' E 131°40'510.2
2017-Dec-08 15:00N 33°47' E 131°46'510.2
2017-Dec-08 14:29N 33°46' E 131°52'710.0
2017-Dec-08 13:45N 33°46' E 132°01'310.3
2017-Dec-08 13:30N 33°46' E 132°04'510.9
2017-Dec-08 12:59N 33°49' E 132°10'610.5
2017-Dec-08 12:26N 33°50' E 132°17'510.6
2017-Dec-08 11:58N 33°50' E 132°22'811.0
2017-Dec-08 11:14N 33°53' E 132°32'311.2
2017-Dec-08 10:59N 33°54' E 132°35'  

Dump ship's entire track history